Outage due to equipment failure. Site will not be transmitting information for the foreseeable future.

Latest Weather Observations for Rundle Island

IDQ60801

Issued at 7:02 pm EST Monday 6 July 2015 (issued every 30 minutes, with the page automatically refreshed every 10 minutes)

About weather observations | Map of weather stations | Latest weather observations for QLD | Other Formats
Station Details ID: 039322 Name: RUNDLE ISLAND Lat: -23.53 Lon: 151.28 Height: 19.8 m
Data from the previous 72 hours. | See also: Recent months at Rundle Island
Date/Time
EST
Temp
°C
App
Temp
°C
Dew
Point
Rel
Hum
%
Delta-T
°C
Wind Press
QNH
hPa
Press
MSL
hPa
Rain
since 9 am
mm
Dir
 
Spd
km/h
Gust
km/h
Spd
kts
Gust
kts
06/05:00pm 20.7 - - - - ENE 11 13 6 7 1016.8 1016.7 -
06/04:30pm 20.7 - - - - ENE 13 15 7 8 1016.5 1016.4 -
06/04:00pm 20.6 - - - - E 13 15 7 8 1016.4 1016.3 -
06/03:30pm 20.4 - - - - E 11 13 6 7 1016.4 1016.3 -
06/03:00pm 20.4 - - - - ESE 9 11 5 6 1016.6 1016.5 -
06/02:00pm 19.8 - - - - SE 11 13 6 7 1017.1 1017.0 -
06/01:30pm 19.5 - - - - SE 11 13 6 7 1017.3 1017.2 -
06/01:00pm 19.4 - - - - SE 13 13 7 7 1017.6 1017.5 -
06/12:30pm 19.5 - - - - SSE 13 13 7 7 1018.2 1018.1 -
06/12:00pm 19.5 - - - - SE 15 17 8 9 1018.7 1018.6 -
06/11:30am 19.5 - - - - SSE 15 17 8 9 1019.3 1019.2 -
06/11:00am 19.0 - - - - SSE 17 19 9 10 1019.5 1019.4 -
06/10:30am 19.0 - - - - SSE 17 17 9 9 1019.7 1019.6 -
06/10:00am 19.1 - - - - SSE 17 19 9 10 1019.8 1019.7 -
06/09:30am 18.9 - - - - S 17 19 9 10 1019.9 1019.8 -
06/09:00am 18.4 - - - - S 17 19 9 10 1019.9 1019.8 -
06/08:30am 17.7 - - - - S 15 17 8 9 1019.7 1019.6 -
06/08:00am 17.7 - - - - S 15 17 8 9 1019.5 1019.4 -
06/07:30am 17.2 - - - - S 15 17 8 9 1019.5 1019.4 -
06/07:00am 17.0 - - - - S 15 17 8 9 1019.4 1019.3 -
06/06:30am 16.9 - - - - S 17 19 9 10 1019.1 1019.0 -
06/06:00am 16.8 - - - - S 17 19 9 10 1019.0 1018.9 -
06/05:30am 17.0 - - - - S 15 17 8 9 1019.0 1018.9 -
06/05:00am 17.1 - - - - S 15 17 8 9 1018.9 1018.8 -
06/04:30am 17.5 - - - - S 17 19 9 10 1018.9 1018.8 -
06/04:00am 17.5 - - - - S 15 19 8 10 1019.0 1018.9 -
06/03:30am 17.9 - - - - S 17 19 9 10 1019.1 1019.0 -
06/03:00am 18.3 - - - - S 15 15 8 8 1019.1 1019.0 -
06/02:30am 18.2 - - - - S 15 19 8 10 1019.1 1019.0 -
06/02:00am 18.4 - - - - S 15 17 8 9 1019.3 1019.2 -
06/01:30am 20.0 - - - - ESE 13 15 7 8 1019.8 1019.7 -
06/01:00am 20.0 - - - - ESE 15 17 8 9 1020.1 1020.0 -
06/12:30am 20.0 - - - - ESE 17 20 9 11 1020.1 1020.0 -
06/12:00am 20.1 - - - - E 17 20 9 11 1020.2 1020.1 -
 
Date/Time
EST
Temp
°C
App
Temp
°C
Dew
Point
Rel
Hum
%
Delta-T
°C
Wind Press
QNH
hPa
Press
MSL
hPa
Rain
since 9 am
mm
Dir
 
Spd
km/h
Gust
km/h
Spd
kts
Gust
kts
05/11:30pm 20.0 - - - - E 19 22 10 12 1020.2 1020.1 -
05/11:00pm 20.1 - - - - E 22 24 12 13 1020.3 1020.2 -
05/10:30pm 20.1 - - - - E 22 26 12 14 1020.5 1020.4 -
05/10:00pm 20.0 - - - - ESE 17 20 9 11 1020.6 1020.5 -
05/09:30pm 20.0 - - - - E 20 22 11 12 1020.7 1020.6 -
05/09:00pm 19.9 - - - - ESE 19 24 10 13 1020.7 1020.6 -
05/08:30pm 20.0 - - - - ESE 22 24 12 13 1020.6 1020.5 -
05/08:00pm 20.0 - - - - ESE 22 26 12 14 1020.3 1020.2 -
05/07:30pm 19.9 - - - - ESE 24 28 13 15 1020.1 1020.0 -
05/07:00pm 19.9 - - - - ESE 24 28 13 15 1019.8 1019.7 -
05/06:30pm 20.0 - - - - ESE 26 28 14 15 1019.5 1019.4 -
05/06:00pm 20.1 - - - - ESE 26 30 14 16 1019.2 1019.1 -
05/05:30pm 20.0 - - - - ESE 26 28 14 15 1019.1 1019.0 -
05/05:00pm 20.3 - - - - E 26 30 14 16 1018.9 1018.8 -
05/04:30pm 20.4 - - - - E 26 30 14 16 1018.9 1018.8 -
05/04:00pm 20.4 - - - - ESE 26 28 14 15 1019.0 1018.9 -
05/03:30pm 20.3 - - - - ESE 26 28 14 15 1019.2 1019.1 -
05/03:00pm 20.2 - - - - ESE 24 28 13 15 1019.4 1019.3 -
05/02:30pm 20.5 - - - - ESE 22 24 12 13 1019.7 1019.6 -
05/02:00pm 20.1 - - - - SE 22 26 12 14 1019.9 1019.8 -
05/01:30pm 20.1 - - - - SE 20 22 11 12 1020.1 1020.0 -
05/01:00pm 19.8 - - - - SE 22 26 12 14 1020.2 1020.1 -
05/12:30pm 19.8 - - - - SE 24 28 13 15 1020.6 1020.5 -
05/12:00pm 20.3 - - - - SSE 24 28 13 15 1021.0 1020.9 -
05/11:30am 20.2 - - - - SSE 20 26 11 14 1021.3 1021.2 -
05/11:00am 20.1 - - - - SSE 19 20 10 11 1021.6 1021.5 -
05/10:30am 19.1 - - - - SSE 24 28 13 15 1021.8 1021.7 -
05/10:00am 18.7 - - - - SSE 26 30 14 16 1022.0 1021.9 -
05/09:30am 18.6 - - - - SSE 30 32 16 17 1021.9 1021.8 -
05/09:00am 18.3 - - - - S 24 26 13 14 1021.8 1021.7 -
05/08:30am 17.9 - - - - S 22 24 12 13 1021.8 1021.7 -
05/08:00am 17.9 - - - - S 24 26 13 14 1021.5 1021.4 -
05/07:30am 17.9 - - - - S 19 22 10 12 1021.2 1021.1 -
05/07:00am 18.0 - - - - S 24 28 13 15 1020.7 1020.6 -
05/06:30am 18.0 - - - - S 22 24 12 13 1020.4 1020.3 -
05/06:00am 17.9 - - - - S 22 26 12 14 1020.1 1020.0 -
05/05:30am 18.3 - - - - S 22 26 12 14 1019.8 1019.7 -
05/05:00am 18.3 - - - - S 26 30 14 16 1019.6 1019.5 -
05/04:30am 18.6 - - - - S 24 28 13 15 1019.4 1019.3 -
05/04:00am 19.0 - - - - SSE 22 26 12 14 1019.3 1019.2 -
05/03:30am 19.0 - - - - SSE 26 30 14 16 1019.2 1019.1 -
05/03:00am 19.0 - - - - SSE 24 30 13 16 1019.3 1019.2 -
05/02:30am 18.6 - - - - SE 28 33 15 18 1019.8 1019.7 -
05/02:00am 19.0 - - - - SSE 28 32 15 17 1019.8 1019.7 -
05/01:30am 18.9 - - - - SSE 26 30 14 16 1020.1 1020.0 -
05/01:00am 19.3 - - - - SSE 28 32 15 17 1020.3 1020.2 -
05/12:30am 19.5 - - - - SSE 26 30 14 16 1020.6 1020.5 -
05/12:00am 19.9 - - - - SE 24 28 13 15 1020.8 1020.7 -
 
Date/Time
EST
Temp
°C
App
Temp
°C
Dew
Point
Rel
Hum
%
Delta-T
°C
Wind Press
QNH
hPa
Press
MSL
hPa
Rain
since 9 am
mm
Dir
 
Spd
km/h
Gust
km/h
Spd
kts
Gust
kts
04/11:30pm 19.9 - - - - SE 24 28 13 15 1021.1 1021.0 -
04/11:00pm 19.8 - - - - SE 24 26 13 14 1021.2 1021.1 -
04/10:30pm 19.6 - - - - SE 24 28 13 15 1021.3 1021.2 -
04/10:00pm 19.8 - - - - SE 26 30 14 16 1021.3 1021.2 -
04/09:30pm 19.9 - - - - ESE 28 30 15 16 1021.5 1021.4 -
04/09:00pm 19.9 - - - - ESE 24 28 13 15 1021.5 1021.4 -
04/08:30pm 20.0 - - - - SE 26 30 14 16 1021.3 1021.2 -
04/08:00pm 19.9 - - - - SE 22 24 12 13 1021.3 1021.2 -
04/07:30pm 19.8 - - - - SE 26 30 14 16 1021.0 1020.9 -
04/07:00pm 19.7 - - - - SE 26 30 14 16 1020.5 1020.4 -
04/06:30pm 19.9 - - - - SE 30 33 16 18 1020.1 1020.0 -
04/06:00pm 19.7 - - - - SE 32 35 17 19 1019.7 1019.6 -
04/05:30pm 19.6 - - - - SE 30 32 16 17 1019.7 1019.6 -
04/05:00pm 19.7 - - - - SE 28 32 15 17 1019.6 1019.5 -
04/04:30pm 19.8 - - - - SE 24 28 13 15 1019.4 1019.3 -
04/04:00pm 19.7 - - - - SE 28 32 15 17 1019.2 1019.1 -
04/03:30pm 19.7 - - - - SE 28 32 15 17 1019.2 1019.1 -
04/03:00pm 19.6 - - - - SE 28 32 15 17 1019.2 1019.1 -
04/02:30pm 19.5 - - - - SE 28 35 15 19 1019.1 1019.0 -
04/02:00pm 19.6 - - - - SE 26 30 14 16 1019.1 1019.0 -
04/01:30pm 19.7 - - - - SE 28 30 15 16 1019.3 1019.2 -
04/01:00pm 19.5 - - - - SE 28 32 15 17 1019.5 1019.4 -
04/12:30pm 19.5 - - - - SE 28 32 15 17 1019.8 1019.7 -
04/12:00pm 19.3 - - - - SE 32 39 17 21 1020.3 1020.2 -
04/11:30am 19.0 - - - - SSE 33 41 18 22 1020.6 1020.5 -
04/11:00am 18.4 - - - - S 30 33 16 18 1020.9 1020.8 -
04/10:30am 18.0 - - - - SSE 32 35 17 19 1021.1 1021.0 -
04/10:00am 17.7 - - - - SSE 33 37 18 20 1021.4 1021.3 -
04/09:30am 17.6 - - - - SSE 32 35 17 19 1021.6 1021.5 -
04/09:00am 17.5 - - - - S 33 43 18 23 1021.6 1021.5 -
04/08:30am 16.7 - - - - S 28 32 15 17 1021.8 1021.7 -
04/08:00am 17.3 - - - - S 28 33 15 18 1021.7 1021.6 -
04/07:30am 16.9 - - - - S 32 37 17 20 1021.5 1021.4 -
04/07:00am 16.7 - - - - S 32 37 17 20 1021.2 1021.1 -
04/06:30am 16.5 - - - - S 32 37 17 20 1020.8 1020.7 -
04/06:00am 16.7 - - - - S 35 43 19 23 1020.5 1020.4 -
04/05:30am 17.2 - - - - SSE 37 43 20 23 1020.1 1020.0 -
04/05:00am 16.9 - - - - S 32 39 17 21 1020.0 1019.9 -
04/04:30am 16.8 - - - - S 30 35 16 19 1020.0 1019.9 -
04/04:00am 16.9 - - - - S 30 35 16 19 1020.1 1020.0 -
04/03:30am 16.8 - - - - S 28 33 15 18 1020.2 1020.1 -
04/03:00am 17.3 - - - - S 26 32 14 17 1020.1 1020.0 -
04/02:30am 16.8 - - - - S 20 24 11 13 1020.4 1020.3 -
04/02:00am 17.0 - - - - S 24 30 13 16 1020.6 1020.5 -
04/01:30am 17.0 - - - - S 26 32 14 17 1020.8 1020.7 -
04/01:00am 17.4 - - - - S 28 33 15 18 1021.0 1020.9 -
04/12:30am 17.4 - - - - SSE 30 35 16 19 1021.1 1021.0 -
04/12:00am 17.4 - - - - S 32 35 17 19 1021.3 1021.2 -
 
Date/Time
EST
Temp
°C
App
Temp
°C
Dew
Point
Rel
Hum
%
Delta-T
°C
Wind Press
QNH
hPa
Press
MSL
hPa
Rain
since 9 am
mm
Dir
 
Spd
km/h
Gust
km/h
Spd
kts
Gust
kts
03/11:30pm 17.8 - - - - S 30 33 16 18 1021.6 1021.5 -
03/11:00pm 18.3 - - - - SSE 32 37 17 20 1021.6 1021.5 -
03/10:30pm 18.6 - - - - SSE 37 43 20 23 1021.6 1021.5 -
03/10:00pm 18.6 - - - - SSE 35 41 19 22 1021.6 1021.5 -
03/09:30pm 19.1 - - - - SE 35 44 19 24 1021.6 1021.5 -
03/09:00pm 18.8 - - - - SSE 35 41 19 22 1021.5 1021.4 -
03/08:30pm 19.1 - - - - SE 35 41 19 22 1021.5 1021.4 -
03/08:00pm 19.1 - - - - SE 37 43 20 23 1021.4 1021.3 -
03/07:30pm 19.0 - - - - SE 35 39 19 21 1021.1 1021.0 -

Other Formats:

Comma delimited format used in spreadsheet applications
http://www.bom.gov.au/fwo/IDQ60801/IDQ60801.94378.axf

JavaScript Object Notation format (JSON) in row-major order
http://www.bom.gov.au/fwo/IDQ60801/IDQ60801.94378.json